sensor_id;sensor_type;location;lat;lon;timestamp;temperature;humidity
30174;DHT22;16985;50.814;8.530;2023-03-23T00:02:15;11.40;93.00
30174;DHT22;16985;50.814;8.530;2023-03-23T00:04:44;11.40;93.00
30174;DHT22;16985;50.814;8.530;2023-03-23T00:07:10;11.40;93.30
30174;DHT22;16985;50.814;8.530;2023-03-23T00:09:40;11.40;93.70
30174;DHT22;16985;50.814;8.530;2023-03-23T00:12:07;11.40;94.20
30174;DHT22;16985;50.814;8.530;2023-03-23T00:14:33;11.30;94.70
30174;DHT22;16985;50.814;8.530;2023-03-23T00:17:09;11.30;95.40
30174;DHT22;16985;50.814;8.530;2023-03-23T00:19:40;11.20;96.20
30174;DHT22;16985;50.814;8.530;2023-03-23T00:22:16;11.20;96.90
30174;DHT22;16985;50.814;8.530;2023-03-23T00:24:47;11.10;97.50
30174;DHT22;16985;50.814;8.530;2023-03-23T00:27:16;11.10;98.20
30174;DHT22;16985;50.814;8.530;2023-03-23T00:29:42;11.10;99.00
30174;DHT22;16985;50.814;8.530;2023-03-23T00:32:10;11.10;99.80
30174;DHT22;16985;50.814;8.530;2023-03-23T00:34:39;11.10;99.90
30174;DHT22;16985;50.814;8.530;2023-03-23T00:37:07;11.00;99.90
30174;DHT22;16985;50.814;8.530;2023-03-23T00:39:33;11.00;99.90
30174;DHT22;16985;50.814;8.530;2023-03-23T00:42:03;10.90;99.90
30174;DHT22;16985;50.814;8.530;2023-03-23T00:44:30;10.90;99.90
30174;DHT22;16985;50.814;8.530;2023-03-23T00:46:57;10.90;99.90
30174;DHT22;16985;50.814;8.530;2023-03-23T00:49:25;10.80;99.90
30174;DHT22;16985;50.814;8.530;2023-03-23T00:51:53;10.90;99.90
30174;DHT22;16985;50.814;8.530;2023-03-23T00:54:35;10.80;99.90
30174;DHT22;16985;50.814;8.530;2023-03-23T00:57:03;10.80;99.90
30174;DHT22;16985;50.814;8.530;2023-03-23T00:59:30;10.80;99.90
30174;DHT22;16985;50.814;8.530;2023-03-23T01:01:56;10.80;99.90
30174;DHT22;16985;50.814;8.530;2023-03-23T01:04:22;10.80;99.90
30174;DHT22;16985;50.814;8.530;2023-03-23T01:06:49;10.80;99.90
30174;DHT22;16985;50.814;8.530;2023-03-23T01:09:20;10.70;99.90
30174;DHT22;16985;50.814;8.530;2023-03-23T01:11:50;10.70;99.90
30174;DHT22;16985;50.814;8.530;2023-03-23T01:17:07;10.70;99.90
30174;DHT22;16985;50.814;8.530;2023-03-23T01:19:34;10.70;99.90
30174;DHT22;16985;50.814;8.530;2023-03-23T01:22:00;10.70;99.90
30174;DHT22;16985;50.814;8.530;2023-03-23T01:24:26;10.70;99.90
30174;DHT22;16985;50.814;8.530;2023-03-23T01:26:52;10.70;99.90
30174;DHT22;16985;50.814;8.530;2023-03-23T01:29:17;10.70;99.90
30174;DHT22;16985;50.814;8.530;2023-03-23T01:31:43;10.70;99.90
30174;DHT22;16985;50.814;8.530;2023-03-23T01:34:11;13.30;99.90
30174;DHT22;16985;50.814;8.530;2023-03-23T01:36:38;10.70;99.90
30174;DHT22;16985;50.814;8.530;2023-03-23T01:39:05;10.80;99.90
30174;DHT22;16985;50.814;8.530;2023-03-23T01:41:33;11.20;99.90
30174;DHT22;16985;50.814;8.530;2023-03-23T01:47:03;10.70;99.90
30174;DHT22;16985;50.814;8.530;2023-03-23T01:49:40;10.70;99.90
30174;DHT22;16985;50.814;8.530;2023-03-23T01:52:14;10.70;99.90
30174;DHT22;16985;50.814;8.530;2023-03-23T01:54:46;10.70;99.90
30174;DHT22;16985;50.814;8.530;2023-03-23T01:57:15;10.70;99.90
30174;DHT22;16985;50.814;8.530;2023-03-23T01:59:52;10.70;99.90
30174;DHT22;16985;50.814;8.530;2023-03-23T02:02:23;10.60;99.90
30174;DHT22;16985;50.814;8.530;2023-03-23T02:04:59;10.70;99.90
30174;DHT22;16985;50.814;8.530;2023-03-23T02:07:31;10.60;99.90
30174;DHT22;16985;50.814;8.530;2023-03-23T02:09:58;10.70;99.90
30174;DHT22;16985;50.814;8.530;2023-03-23T02:12:26;10.70;99.90
30174;DHT22;16985;50.814;8.530;2023-03-23T02:14:53;10.90;99.90
30174;DHT22;16985;50.814;8.530;2023-03-23T02:17:46;10.60;99.90
30174;DHT22;16985;50.814;8.530;2023-03-23T02:26:41;10.50;99.90
30174;DHT22;16985;50.814;8.530;2023-03-23T02:29:53;10.50;99.90
30174;DHT22;16985;50.814;8.530;2023-03-23T02:35:38;10.50;99.90
30174;DHT22;16985;50.814;8.530;2023-03-23T02:38:55;10.50;99.90
30174;DHT22;16985;50.814;8.530;2023-03-23T02:42:09;10.40;99.90
30174;DHT22;16985;50.814;8.530;2023-03-23T02:44:39;10.40;99.90
30174;DHT22;16985;50.814;8.530;2023-03-23T02:47:11;10.40;99.90
30174;DHT22;16985;50.814;8.530;2023-03-23T02:49:41;10.40;99.90
30174;DHT22;16985;50.814;8.530;2023-03-23T02:52:11;10.30;99.90
30174;DHT22;16985;50.814;8.530;2023-03-23T02:54:43;10.30;99.90
30174;DHT22;16985;50.814;8.530;2023-03-23T02:57:10;10.30;99.90
30174;DHT22;16985;50.814;8.530;2023-03-23T02:59:40;10.30;99.90
30174;DHT22;16985;50.814;8.530;2023-03-23T03:02:14;10.20;99.90
30174;DHT22;16985;50.814;8.530;2023-03-23T03:05:14;10.20;99.90
30174;DHT22;16985;50.814;8.530;2023-03-23T03:10:54;10.20;99.90
30174;DHT22;16985;50.814;8.530;2023-03-23T03:13:47;10.20;99.90
30174;DHT22;16985;50.814;8.530;2023-03-23T03:16:31;10.10;99.90
30174;DHT22;16985;50.814;8.530;2023-03-23T03:19:33;10.20;99.90
30174;DHT22;16985;50.814;8.530;2023-03-23T03:22:02;10.10;99.90
30174;DHT22;16985;50.814;8.530;2023-03-23T03:24:38;10.10;99.90
30174;DHT22;16985;50.814;8.530;2023-03-23T03:27:11;9.00;99.90
30174;DHT22;16985;50.814;8.530;2023-03-23T03:29:51;10.10;99.90
30174;DHT22;16985;50.814;8.530;2023-03-23T03:32:22;10.10;99.90
30174;DHT22;16985;50.814;8.530;2023-03-23T03:34:51;10.10;99.90
30174;DHT22;16985;50.814;8.530;2023-03-23T03:37:19;10.10;99.90
30174;DHT22;16985;50.814;8.530;2023-03-23T03:39:48;10.10;99.90
30174;DHT22;16985;50.814;8.530;2023-03-23T03:42:14;10.10;99.90
30174;DHT22;16985;50.814;8.530;2023-03-23T03:44:40;10.10;99.90
30174;DHT22;16985;50.814;8.530;2023-03-23T03:47:06;10.00;99.90
30174;DHT22;16985;50.814;8.530;2023-03-23T03:49:32;10.10;99.90
30174;DHT22;16985;50.814;8.530;2023-03-23T03:51:57;10.00;99.90
30174;DHT22;16985;50.814;8.530;2023-03-23T03:54:33;10.50;99.90
30174;DHT22;16985;50.814;8.530;2023-03-23T03:56:58;10.10;99.90
30174;DHT22;16985;50.814;8.530;2023-03-23T03:59:56;10.00;99.90
30174;DHT22;16985;50.814;8.530;2023-03-23T04:02:46;10.00;99.90
30174;DHT22;16985;50.814;8.530;2023-03-23T04:05:17;10.00;99.90
30174;DHT22;16985;50.814;8.530;2023-03-23T04:07:46;10.00;99.90
30174;DHT22;16985;50.814;8.530;2023-03-23T04:10:14;9.90;99.90
30174;DHT22;16985;50.814;8.530;2023-03-23T04:12:42;10.00;99.90
30174;DHT22;16985;50.814;8.530;2023-03-23T04:15:14;12.20;99.90
30174;DHT22;16985;50.814;8.530;2023-03-23T04:17:41;10.00;99.90
30174;DHT22;16985;50.814;8.530;2023-03-23T04:20:10;10.00;99.90
30174;DHT22;16985;50.814;8.530;2023-03-23T04:22:45;10.00;99.90
30174;DHT22;16985;50.814;8.530;2023-03-23T04:25:16;10.00;99.90
30174;DHT22;16985;50.814;8.530;2023-03-23T04:27:47;10.00;99.90
30174;DHT22;16985;50.814;8.530;2023-03-23T04:30:20;10.00;99.90
30174;DHT22;16985;50.814;8.530;2023-03-23T04:32:59;10.00;99.90
30174;DHT22;16985;50.814;8.530;2023-03-23T04:35:27;10.00;99.90
30174;DHT22;16985;50.814;8.530;2023-03-23T04:38:06;9.90;99.90
30174;DHT22;16985;50.814;8.530;2023-03-23T04:40:39;10.00;99.90
30174;DHT22;16985;50.814;8.530;2023-03-23T04:43:15;10.00;99.90
30174;DHT22;16985;50.814;8.530;2023-03-23T04:46:00;9.90;99.90
30174;DHT22;16985;50.814;8.530;2023-03-23T04:48:30;9.90;99.90
30174;DHT22;16985;50.814;8.530;2023-03-23T04:51:17;9.90;99.90
30174;DHT22;16985;50.814;8.530;2023-03-23T04:53:45;9.90;99.90
30174;DHT22;16985;50.814;8.530;2023-03-23T04:56:12;9.90;99.90
30174;DHT22;16985;50.814;8.530;2023-03-23T04:58:42;9.90;99.90
30174;DHT22;16985;50.814;8.530;2023-03-23T05:01:27;10.40;99.90
30174;DHT22;16985;50.814;8.530;2023-03-23T05:04:16;9.80;99.90
30174;DHT22;16985;50.814;8.530;2023-03-23T05:06:46;9.80;99.90
30174;DHT22;16985;50.814;8.530;2023-03-23T05:09:19;9.80;99.90
30174;DHT22;16985;50.814;8.530;2023-03-23T05:11:46;9.80;99.90
30174;DHT22;16985;50.814;8.530;2023-03-23T05:14:12;9.80;99.90
30174;DHT22;16985;50.814;8.530;2023-03-23T05:16:39;9.80;99.90
30174;DHT22;16985;50.814;8.530;2023-03-23T05:19:06;9.80;99.90
30174;DHT22;16985;50.814;8.530;2023-03-23T05:21:34;9.80;99.90
30174;DHT22;16985;50.814;8.530;2023-03-23T05:24:00;9.80;99.90
30174;DHT22;16985;50.814;8.530;2023-03-23T05:26:28;9.80;99.90
30174;DHT22;16985;50.814;8.530;2023-03-23T05:28:59;9.80;99.90
30174;DHT22;16985;50.814;8.530;2023-03-23T05:31:52;9.80;99.90
30174;DHT22;16985;50.814;8.530;2023-03-23T05:34:21;9.80;99.90
30174;DHT22;16985;50.814;8.530;2023-03-23T05:36:52;9.80;99.90
30174;DHT22;16985;50.814;8.530;2023-03-23T05:39:43;9.80;99.90
30174;DHT22;16985;50.814;8.530;2023-03-23T05:42:13;9.80;99.90
30174;DHT22;16985;50.814;8.530;2023-03-23T05:44:49;9.80;99.90
30174;DHT22;16985;50.814;8.530;2023-03-23T05:47:15;9.80;99.90
30174;DHT22;16985;50.814;8.530;2023-03-23T05:49:48;9.90;99.90
30174;DHT22;16985;50.814;8.530;2023-03-23T05:52:20;10.00;99.90
30174;DHT22;16985;50.814;8.530;2023-03-23T05:54:53;9.90;99.90
30174;DHT22;16985;50.814;8.530;2023-03-23T05:57:20;9.90;99.90
30174;DHT22;16985;50.814;8.530;2023-03-23T05:59:52;10.00;99.90
30174;DHT22;16985;50.814;8.530;2023-03-23T06:02:24;10.00;99.90
30174;DHT22;16985;50.814;8.530;2023-03-23T06:04:52;10.00;99.90
30174;DHT22;16985;50.814;8.530;2023-03-23T06:07:27;10.00;99.90
30174;DHT22;16985;50.814;8.530;2023-03-23T06:09:59;10.00;99.90
30174;DHT22;16985;50.814;8.530;2023-03-23T06:12:25;10.00;99.90
30174;DHT22;16985;50.814;8.530;2023-03-23T06:14:54;10.00;99.90
30174;DHT22;16985;50.814;8.530;2023-03-23T06:17:27;10.00;99.90
30174;DHT22;16985;50.814;8.530;2023-03-23T06:19:53;10.00;99.90
30174;DHT22;16985;50.814;8.530;2023-03-23T06:22:20;10.00;99.90
30174;DHT22;16985;50.814;8.530;2023-03-23T06:24:55;10.00;99.90
30174;DHT22;16985;50.814;8.530;2023-03-23T06:27:29;10.10;99.90
30174;DHT22;16985;50.814;8.530;2023-03-23T06:29:56;10.10;99.90
30174;DHT22;16985;50.814;8.530;2023-03-23T06:32:25;10.10;99.90
30174;DHT22;16985;50.814;8.530;2023-03-23T06:34:51;10.10;99.90
30174;DHT22;16985;50.814;8.530;2023-03-23T06:37:44;10.10;99.90
30174;DHT22;16985;50.814;8.530;2023-03-23T06:40:17;10.10;99.90
30174;DHT22;16985;50.814;8.530;2023-03-23T06:42:50;10.10;99.90
30174;DHT22;16985;50.814;8.530;2023-03-23T06:45:35;10.10;99.90
30174;DHT22;16985;50.814;8.530;2023-03-23T06:48:21;13.00;99.90
30174;DHT22;16985;50.814;8.530;2023-03-23T06:50:47;10.10;99.90
30174;DHT22;16985;50.814;8.530;2023-03-23T06:53:16;10.20;99.90
30174;DHT22;16985;50.814;8.530;2023-03-23T06:55:43;10.20;99.90
30174;DHT22;16985;50.814;8.530;2023-03-23T06:58:25;10.20;99.90
30174;DHT22;16985;50.814;8.530;2023-03-23T07:00:55;10.20;99.90
30174;DHT22;16985;50.814;8.530;2023-03-23T07:03:26;10.20;99.90
30174;DHT22;16985;50.814;8.530;2023-03-23T07:05:54;10.20;99.90
30174;DHT22;16985;50.814;8.530;2023-03-23T07:08:21;10.30;99.90
30174;DHT22;16985;50.814;8.530;2023-03-23T07:11:05;10.30;99.90
30174;DHT22;16985;50.814;8.530;2023-03-23T07:13:32;10.30;99.90
30174;DHT22;16985;50.814;8.530;2023-03-23T07:16:00;10.30;99.90
30174;DHT22;16985;50.814;8.530;2023-03-23T07:18:26;10.30;99.90
30174;DHT22;16985;50.814;8.530;2023-03-23T07:20:54;10.30;99.90
30174;DHT22;16985;50.814;8.530;2023-03-23T07:23:25;10.40;99.90
30174;DHT22;16985;50.814;8.530;2023-03-23T07:25:59;10.30;99.90
30174;DHT22;16985;50.814;8.530;2023-03-23T07:28:31;10.40;99.90
30174;DHT22;16985;50.814;8.530;2023-03-23T07:31:02;10.40;99.90
30174;DHT22;16985;50.814;8.530;2023-03-23T07:33:28;10.40;99.90
30174;DHT22;16985;50.814;8.530;2023-03-23T07:35:58;10.40;99.90
30174;DHT22;16985;50.814;8.530;2023-03-23T07:38:26;10.40;99.90
30174;DHT22;16985;50.814;8.530;2023-03-23T07:40:53;10.50;99.90
30174;DHT22;16985;50.814;8.530;2023-03-23T07:43:19;10.50;99.90
30174;DHT22;16985;50.814;8.530;2023-03-23T07:46:04;10.50;99.90
30174;DHT22;16985;50.814;8.530;2023-03-23T07:48:45;13.10;99.90
30174;DHT22;16985;50.814;8.530;2023-03-23T07:51:11;10.60;99.90
30174;DHT22;16985;50.814;8.530;2023-03-23T07:53:38;10.60;99.90
30174;DHT22;16985;50.814;8.530;2023-03-23T07:56:28;10.60;99.90
30174;DHT22;16985;50.814;8.530;2023-03-23T07:59:04;10.70;99.90
30174;DHT22;16985;50.814;8.530;2023-03-23T08:01:35;10.70;99.90
30174;DHT22;16985;50.814;8.530;2023-03-23T08:04:24;10.70;99.90
30174;DHT22;16985;50.814;8.530;2023-03-23T08:07:17;10.80;99.90
30174;DHT22;16985;50.814;8.530;2023-03-23T08:10:04;10.80;99.90
30174;DHT22;16985;50.814;8.530;2023-03-23T08:12:54;10.90;99.90
30174;DHT22;16985;50.814;8.530;2023-03-23T08:15:51;10.90;99.90
30174;DHT22;16985;50.814;8.530;2023-03-23T08:18:27;10.90;99.90
30174;DHT22;16985;50.814;8.530;2023-03-23T08:21:14;11.00;99.90
30174;DHT22;16985;50.814;8.530;2023-03-23T08:23:58;11.00;99.90
30174;DHT22;16985;50.814;8.530;2023-03-23T08:26:48;11.00;99.90
30174;DHT22;16985;50.814;8.530;2023-03-23T08:29:20;11.10;99.90
30174;DHT22;16985;50.814;8.530;2023-03-23T08:32:02;11.10;99.90
30174;DHT22;16985;50.814;8.530;2023-03-23T08:34:31;11.10;99.90
30174;DHT22;16985;50.814;8.530;2023-03-23T08:37:27;11.10;99.90
30174;DHT22;16985;50.814;8.530;2023-03-23T08:40:13;11.20;99.90
30174;DHT22;16985;50.814;8.530;2023-03-23T08:42:49;11.20;99.90
30174;DHT22;16985;50.814;8.530;2023-03-23T08:45:37;11.30;99.90
30174;DHT22;16985;50.814;8.530;2023-03-23T08:48:03;11.30;99.90
30174;DHT22;16985;50.814;8.530;2023-03-23T08:50:55;11.30;99.90
30174;DHT22;16985;50.814;8.530;2023-03-23T08:53:44;11.30;99.90
30174;DHT22;16985;50.814;8.530;2023-03-23T08:56:33;11.30;99.90
30174;DHT22;16985;50.814;8.530;2023-03-23T08:59:25;11.30;99.90
30174;DHT22;16985;50.814;8.530;2023-03-23T09:02:14;11.40;99.90
30174;DHT22;16985;50.814;8.530;2023-03-23T09:04:48;11.40;99.90
30174;DHT22;16985;50.814;8.530;2023-03-23T09:07:23;11.40;99.90
30174;DHT22;16985;50.814;8.530;2023-03-23T09:09:49;11.40;99.90
30174;DHT22;16985;50.814;8.530;2023-03-23T09:12:15;11.40;99.90
30174;DHT22;16985;50.814;8.530;2023-03-23T09:14:42;11.50;99.90
30174;DHT22;16985;50.814;8.530;2023-03-23T09:17:07;11.50;99.90
30174;DHT22;16985;50.814;8.530;2023-03-23T09:19:34;11.50;99.90
30174;DHT22;16985;50.814;8.530;2023-03-23T09:22:01;11.50;99.90
30174;DHT22;16985;50.814;8.530;2023-03-23T09:24:28;11.50;99.90
30174;DHT22;16985;50.814;8.530;2023-03-23T09:26:53;11.60;99.90
30174;DHT22;16985;50.814;8.530;2023-03-23T09:29:19;11.60;99.90
30174;DHT22;16985;50.814;8.530;2023-03-23T09:31:46;11.60;99.90
30174;DHT22;16985;50.814;8.530;2023-03-23T09:34:13;11.60;99.90
30174;DHT22;16985;50.814;8.530;2023-03-23T09:36:41;11.60;99.90
30174;DHT22;16985;50.814;8.530;2023-03-23T09:39:18;11.60;99.90
30174;DHT22;16985;50.814;8.530;2023-03-23T09:42:19;11.60;99.90
30174;DHT22;16985;50.814;8.530;2023-03-23T09:45:15;11.60;99.90
30174;DHT22;16985;50.814;8.530;2023-03-23T09:48:11;11.50;99.90
30174;DHT22;16985;50.814;8.530;2023-03-23T09:50:47;11.50;99.90
30174;DHT22;16985;50.814;8.530;2023-03-23T09:53:20;11.50;99.90
30174;DHT22;16985;50.814;8.530;2023-03-23T09:55:49;11.50;99.90
30174;DHT22;16985;50.814;8.530;2023-03-23T09:58:30;11.50;99.90
30174;DHT22;16985;50.814;8.530;2023-03-23T10:01:10;11.50;99.90
30174;DHT22;16985;50.814;8.530;2023-03-23T10:03:43;11.20;99.90
30174;DHT22;16985;50.814;8.530;2023-03-23T10:06:16;11.50;99.90
30174;DHT22;16985;50.814;8.530;2023-03-23T10:08:57;11.50;99.90
30174;DHT22;16985;50.814;8.530;2023-03-23T10:11:56;11.50;99.90
30174;DHT22;16985;50.814;8.530;2023-03-23T10:14:33;11.50;99.90
30174;DHT22;16985;50.814;8.530;2023-03-23T10:17:32;11.60;99.90
30174;DHT22;16985;50.814;8.530;2023-03-23T10:20:33;11.50;99.90
30174;DHT22;16985;50.814;8.530;2023-03-23T10:26:00;11.60;99.90
30174;DHT22;16985;50.814;8.530;2023-03-23T10:31:14;11.60;99.90
30174;DHT22;16985;50.814;8.530;2023-03-23T10:33:49;11.70;99.90
30174;DHT22;16985;50.814;8.530;2023-03-23T10:39:27;11.70;99.90
30174;DHT22;16985;50.814;8.530;2023-03-23T10:41:57;11.70;99.90
30174;DHT22;16985;50.814;8.530;2023-03-23T10:44:28;11.80;99.90
30174;DHT22;16985;50.814;8.530;2023-03-23T10:47:03;11.80;99.90
30174;DHT22;16985;50.814;8.530;2023-03-23T10:49:42;11.90;99.90
30174;DHT22;16985;50.814;8.530;2023-03-23T10:52:31;12.00;99.90
30174;DHT22;16985;50.814;8.530;2023-03-23T10:57:38;12.20;99.90
30174;DHT22;16985;50.814;8.530;2023-03-23T11:00:21;12.30;99.90
30174;DHT22;16985;50.814;8.530;2023-03-23T11:02:59;12.40;99.90
30174;DHT22;16985;50.814;8.530;2023-03-23T11:05:47;13.80;99.90
30174;DHT22;16985;50.814;8.530;2023-03-23T11:08:29;12.60;99.90
30174;DHT22;16985;50.814;8.530;2023-03-23T11:11:20;12.60;99.90
30174;DHT22;16985;50.814;8.530;2023-03-23T11:13:58;12.70;99.90
30174;DHT22;16985;50.814;8.530;2023-03-23T11:16:33;12.70;99.90
30174;DHT22;16985;50.814;8.530;2023-03-23T11:19:14;12.60;99.90
30174;DHT22;16985;50.814;8.530;2023-03-23T11:21:47;12.60;99.90
30174;DHT22;16985;50.814;8.530;2023-03-23T11:24:17;12.60;99.90
30174;DHT22;16985;50.814;8.530;2023-03-23T11:26:44;12.60;99.90
30174;DHT22;16985;50.814;8.530;2023-03-23T11:29:22;12.50;99.90
30174;DHT22;16985;50.814;8.530;2023-03-23T11:31:53;12.50;99.90
30174;DHT22;16985;50.814;8.530;2023-03-23T11:34:33;12.50;99.90
30174;DHT22;16985;50.814;8.530;2023-03-23T11:37:03;12.50;99.90
30174;DHT22;16985;50.814;8.530;2023-03-23T11:39:54;12.50;99.90
30174;DHT22;16985;50.814;8.530;2023-03-23T11:42:25;12.60;99.90
30174;DHT22;16985;50.814;8.530;2023-03-23T11:45:13;12.50;99.90
30174;DHT22;16985;50.814;8.530;2023-03-23T11:47:56;12.50;99.90
30174;DHT22;16985;50.814;8.530;2023-03-23T11:50:32;12.50;99.90
30174;DHT22;16985;50.814;8.530;2023-03-23T11:56:29;12.50;99.90
30174;DHT22;16985;50.814;8.530;2023-03-23T11:58:59;12.50;99.90
30174;DHT22;16985;50.814;8.530;2023-03-23T12:07:39;12.50;99.90
30174;DHT22;16985;50.814;8.530;2023-03-23T12:11:21;12.50;99.90
30174;DHT22;16985;50.814;8.530;2023-03-23T12:29:44;12.80;99.90
30174;DHT22;16985;50.814;8.530;2023-03-23T12:35:21;12.90;99.90
30174;DHT22;16985;50.814;8.530;2023-03-23T12:38:12;15.40;99.90
30174;DHT22;16985;50.814;8.530;2023-03-23T12:52:33;13.20;99.90
30174;DHT22;16985;50.814;8.530;2023-03-23T12:55:07;13.30;99.90
30174;DHT22;16985;50.814;8.530;2023-03-23T12:57:56;13.20;99.90
30174;DHT22;16985;50.814;8.530;2023-03-23T13:03:35;13.30;99.90
30174;DHT22;16985;50.814;8.530;2023-03-23T13:06:31;13.30;99.90
30174;DHT22;16985;50.814;8.530;2023-03-23T13:11:53;13.30;99.90
30174;DHT22;16985;50.814;8.530;2023-03-23T13:17:37;13.40;99.90
30174;DHT22;16985;50.814;8.530;2023-03-23T13:20:55;13.50;99.90
30174;DHT22;16985;50.814;8.530;2023-03-23T13:23:34;13.50;99.90
30174;DHT22;16985;50.814;8.530;2023-03-23T13:26:08;13.60;99.60
30174;DHT22;16985;50.814;8.530;2023-03-23T13:31:13;13.70;98.00
30174;DHT22;16985;50.814;8.530;2023-03-23T13:33:46;13.70;98.00
30174;DHT22;16985;50.814;8.530;2023-03-23T13:36:35;13.70;97.40
30174;DHT22;16985;50.814;8.530;2023-03-23T13:39:06;13.80;96.80
30174;DHT22;16985;50.814;8.530;2023-03-23T13:42:04;13.80;96.70
30174;DHT22;16985;50.814;8.530;2023-03-23T13:47:26;13.80;95.90
30174;DHT22;16985;50.814;8.530;2023-03-23T14:03:09;13.80;95.50
30174;DHT22;16985;50.814;8.530;2023-03-23T14:05:45;13.80;95.40
30174;DHT22;16985;50.814;8.530;2023-03-23T14:08:51;11.90;95.00
30174;DHT22;16985;50.814;8.530;2023-03-23T14:11:23;13.80;96.10
30174;DHT22;16985;50.814;8.530;2023-03-23T14:16:40;13.90;95.70
30174;DHT22;16985;50.814;8.530;2023-03-23T14:19:28;13.90;94.80
30174;DHT22;16985;50.814;8.530;2023-03-23T14:21:59;13.90;94.80
30174;DHT22;16985;50.814;8.530;2023-03-23T14:24:32;13.80;94.50
30174;DHT22;16985;50.814;8.530;2023-03-23T14:27:21;13.90;94.60
30174;DHT22;16985;50.814;8.530;2023-03-23T14:30:06;13.80;94.40
30174;DHT22;16985;50.814;8.530;2023-03-23T14:32:34;13.70;94.20
30174;DHT22;16985;50.814;8.530;2023-03-23T14:35:06;13.70;94.70
30174;DHT22;16985;50.814;8.530;2023-03-23T14:37:34;13.60;95.00
30174;DHT22;16985;50.814;8.530;2023-03-23T14:40:03;13.70;95.20
30174;DHT22;16985;50.814;8.530;2023-03-23T14:42:45;13.60;95.30
30174;DHT22;16985;50.814;8.530;2023-03-23T14:45:15;13.60;95.40
30174;DHT22;16985;50.814;8.530;2023-03-23T14:47:54;13.60;95.40
30174;DHT22;16985;50.814;8.530;2023-03-23T14:50:26;13.60;95.30
30174;DHT22;16985;50.814;8.530;2023-03-23T14:53:29;13.60;95.00
30174;DHT22;16985;50.814;8.530;2023-03-23T14:56:01;13.60;94.90
30174;DHT22;16985;50.814;8.530;2023-03-23T14:58:30;13.60;95.00
30174;DHT22;16985;50.814;8.530;2023-03-23T15:01:05;13.60;95.40
30174;DHT22;16985;50.814;8.530;2023-03-23T15:03:45;13.60;95.40
30174;DHT22;16985;50.814;8.530;2023-03-23T15:06:26;13.60;95.10
30174;DHT22;16985;50.814;8.530;2023-03-23T15:08:56;13.60;95.00
30174;DHT22;16985;50.814;8.530;2023-03-23T15:11:26;13.60;95.10
30174;DHT22;16985;50.814;8.530;2023-03-23T15:13:57;13.60;95.10
30174;DHT22;16985;50.814;8.530;2023-03-23T15:16:32;13.70;94.70
30174;DHT22;16985;50.814;8.530;2023-03-23T15:19:11;13.70;94.30
30174;DHT22;16985;50.814;8.530;2023-03-23T15:21:53;13.70;94.50
30174;DHT22;16985;50.814;8.530;2023-03-23T15:24:27;13.70;94.80
30174;DHT22;16985;50.814;8.530;2023-03-23T15:27:16;13.60;94.40
30174;DHT22;16985;50.814;8.530;2023-03-23T15:29:54;13.60;94.30
30174;DHT22;16985;50.814;8.530;2023-03-23T15:32:31;13.60;94.30
30174;DHT22;16985;50.814;8.530;2023-03-23T15:35:12;13.60;94.50
30174;DHT22;16985;50.814;8.530;2023-03-23T15:37:44;13.60;94.50
30174;DHT22;16985;50.814;8.530;2023-03-23T15:40:19;13.50;94.20
30174;DHT22;16985;50.814;8.530;2023-03-23T15:42:47;13.50;94.20
30174;DHT22;16985;50.814;8.530;2023-03-23T15:50:20;13.40;94.60
30174;DHT22;16985;50.814;8.530;2023-03-23T15:52:57;13.40;94.70
30174;DHT22;16985;50.814;8.530;2023-03-23T15:55:26;13.40;94.90
30174;DHT22;16985;50.814;8.530;2023-03-23T15:57:55;13.60;95.10
30174;DHT22;16985;50.814;8.530;2023-03-23T16:00:24;13.40;95.10
30174;DHT22;16985;50.814;8.530;2023-03-23T16:03:03;13.40;95.10
30174;DHT22;16985;50.814;8.530;2023-03-23T16:05:30;13.40;95.20
30174;DHT22;16985;50.814;8.530;2023-03-23T16:07:57;13.40;95.30
30174;DHT22;16985;50.814;8.530;2023-03-23T16:10:35;13.50;95.30
30174;DHT22;16985;50.814;8.530;2023-03-23T16:13:01;13.50;94.70
30174;DHT22;16985;50.814;8.530;2023-03-23T16:15:29;13.50;94.80
30174;DHT22;16985;50.814;8.530;2023-03-23T16:17:55;13.50;94.90
30174;DHT22;16985;50.814;8.530;2023-03-23T16:20:31;13.50;94.70
30174;DHT22;16985;50.814;8.530;2023-03-23T16:22:57;13.50;94.40
30174;DHT22;16985;50.814;8.530;2023-03-23T16:25:23;13.70;94.40
30174;DHT22;16985;50.814;8.530;2023-03-23T16:27:49;13.50;94.10
30174;DHT22;16985;50.814;8.530;2023-03-23T16:30:21;13.50;93.90
30174;DHT22;16985;50.814;8.530;2023-03-23T16:32:50;13.50;93.80
30174;DHT22;16985;50.814;8.530;2023-03-23T16:35:16;13.50;93.90
30174;DHT22;16985;50.814;8.530;2023-03-23T16:37:52;13.40;94.10
30174;DHT22;16985;50.814;8.530;2023-03-23T16:40:20;13.40;94.20
30174;DHT22;16985;50.814;8.530;2023-03-23T16:42:47;13.30;94.30
30174;DHT22;16985;50.814;8.530;2023-03-23T16:45:22;13.30;94.30
30174;DHT22;16985;50.814;8.530;2023-03-23T16:47:48;13.30;94.50
30174;DHT22;16985;50.814;8.530;2023-03-23T16:50:23;13.20;94.10
30174;DHT22;16985;50.814;8.530;2023-03-23T16:52:49;13.20;94.10
30174;DHT22;16985;50.814;8.530;2023-03-23T16:55:16;13.20;94.20
30174;DHT22;16985;50.814;8.530;2023-03-23T16:57:44;13.10;94.10
30174;DHT22;16985;50.814;8.530;2023-03-23T17:00:11;13.30;94.20
30174;DHT22;16985;50.814;8.530;2023-03-23T17:02:46;13.10;94.20
30174;DHT22;16985;50.814;8.530;2023-03-23T17:05:13;13.00;94.40
30174;DHT22;16985;50.814;8.530;2023-03-23T17:07:40;13.00;94.50
30174;DHT22;16985;50.814;8.530;2023-03-23T17:10:08;13.10;94.50
30174;DHT22;16985;50.814;8.530;2023-03-23T17:12:35;12.90;94.60
30174;DHT22;16985;50.814;8.530;2023-03-23T17:15:01;12.90;94.60
30174;DHT22;16985;50.814;8.530;2023-03-23T17:17:28;12.80;94.70
30174;DHT22;16985;50.814;8.530;2023-03-23T17:19:54;13.50;94.90
30174;DHT22;16985;50.814;8.530;2023-03-23T17:22:21;12.80;94.80
30174;DHT22;16985;50.814;8.530;2023-03-23T17:24:46;12.70;95.10
30174;DHT22;16985;50.814;8.530;2023-03-23T17:27:16;12.70;95.20
30174;DHT22;16985;50.814;8.530;2023-03-23T17:29:44;12.60;95.40
30174;DHT22;16985;50.814;8.530;2023-03-23T17:32:26;12.60;95.20
30174;DHT22;16985;50.814;8.530;2023-03-23T17:34:52;12.50;95.20
30174;DHT22;16985;50.814;8.530;2023-03-23T17:37:19;12.40;95.30
30174;DHT22;16985;50.814;8.530;2023-03-23T17:39:45;12.40;95.20
30174;DHT22;16985;50.814;8.530;2023-03-23T17:42:11;12.40;95.30
30174;DHT22;16985;50.814;8.530;2023-03-23T17:44:38;12.30;95.40
30174;DHT22;16985;50.814;8.530;2023-03-23T17:47:04;12.30;95.60
30174;DHT22;16985;50.814;8.530;2023-03-23T17:49:30;12.20;95.50
30174;DHT22;16985;50.814;8.530;2023-03-23T17:51:57;12.20;95.60
30174;DHT22;16985;50.814;8.530;2023-03-23T17:54:24;12.10;95.80
30174;DHT22;16985;50.814;8.530;2023-03-23T17:56:51;12.10;96.00
30174;DHT22;16985;50.814;8.530;2023-03-23T17:59:18;12.00;96.20
30174;DHT22;16985;50.814;8.530;2023-03-23T18:01:46;12.00;96.40
30174;DHT22;16985;50.814;8.530;2023-03-23T18:04:15;12.00;96.40